createdAt,value
2023-04-27T00:00:25.362Z,7.49
2023-04-27T00:02:55.351Z,7.40
2023-04-27T00:05:22.871Z,7.16
2023-04-27T00:07:52.239Z,7.13
2023-04-27T00:10:19.098Z,6.95
2023-04-27T00:12:48.154Z,6.94
2023-04-27T00:15:22.055Z,7.13
2023-04-27T00:17:49.028Z,6.89
2023-04-27T00:20:16.216Z,6.83
2023-04-27T00:22:46.240Z,6.94
2023-04-27T00:25:13.126Z,7.04
2023-04-27T00:27:40.088Z,6.57
2023-04-27T00:32:37.008Z,6.60
2023-04-27T00:35:04.156Z,6.59
2023-04-27T00:37:34.026Z,6.42
2023-04-27T00:40:01.240Z,6.51
2023-04-27T00:42:28.090Z,6.47
2023-04-27T00:44:58.723Z,6.32
2023-04-27T00:47:26.427Z,6.50
2023-04-27T00:49:55.960Z,6.52
2023-04-27T00:52:23.098Z,6.71
2023-04-27T00:54:53.634Z,6.54
2023-04-27T00:57:23.447Z,6.86
2023-04-27T00:59:50.414Z,6.86
2023-04-27T01:02:20.772Z,6.77
2023-04-27T01:04:50.486Z,6.81
2023-04-27T01:07:25.144Z,6.74
2023-04-27T01:09:54.725Z,6.85
2023-04-27T01:12:21.654Z,6.78
2023-04-27T01:14:48.698Z,6.39
2023-04-27T01:17:19.288Z,6.24
2023-04-27T01:19:46.188Z,6.11
2023-04-27T01:22:15.287Z,6.12
2023-04-27T01:24:42.134Z,6.08
2023-04-27T01:27:11.694Z,6.15
2023-04-27T01:29:39.121Z,6.25
2023-04-27T01:32:06.686Z,6.30
2023-04-27T01:34:33.910Z,6.18
2023-04-27T01:37:05.576Z,6.08
2023-04-27T01:39:32.617Z,6.04
2023-04-27T01:41:59.587Z,6.07
2023-04-27T01:44:26.682Z,5.98
2023-04-27T01:46:56.131Z,6.08
2023-04-27T01:49:23.109Z,6.08
2023-04-27T01:51:50.266Z,5.99
2023-04-27T01:54:17.122Z,5.98
2023-04-27T01:56:46.404Z,5.87
2023-04-27T01:59:13.682Z,6.05
2023-04-27T02:01:40.891Z,6.00
2023-04-27T02:04:08.183Z,6.00
2023-04-27T02:06:35.352Z,6.05
2023-04-27T02:09:04.881Z,5.91
2023-04-27T02:11:31.976Z,6.05
2023-04-27T02:13:58.841Z,6.04
2023-04-27T02:16:25.948Z,5.91
2023-04-27T02:18:53.857Z,5.84
2023-04-27T02:21:23.359Z,5.62
2023-04-27T02:23:50.317Z,5.65
2023-04-27T02:26:19.553Z,5.87
2023-04-27T02:28:50.381Z,5.81
2023-04-27T02:31:17.747Z,5.64
2023-04-27T02:33:47.739Z,5.74
2023-04-27T02:36:16.911Z,5.73
2023-04-27T02:38:43.816Z,5.79
2023-04-27T02:41:10.890Z,5.57
2023-04-27T02:43:40.460Z,5.59
2023-04-27T02:46:09.969Z,5.51
2023-04-27T02:48:41.489Z,5.61
2023-04-27T02:51:11.510Z,5.67
2023-04-27T02:53:41.017Z,5.62
2023-04-27T02:56:07.953Z,5.56
2023-04-27T02:58:35.183Z,5.67
2023-04-27T03:01:02.597Z,5.82
2023-04-27T03:03:29.726Z,5.84
2023-04-27T03:05:56.790Z,5.90
2023-04-27T03:08:23.712Z,6.00
2023-04-27T03:10:53.121Z,6.00
2023-04-27T03:13:20.188Z,5.89
2023-04-27T03:15:47.103Z,6.06
2023-04-27T03:18:16.308Z,5.91
2023-04-27T03:20:45.433Z,6.06
2023-04-27T03:23:12.347Z,5.97
2023-04-27T03:25:39.212Z,5.99
2023-04-27T03:28:08.544Z,6.02
2023-04-27T03:30:35.373Z,5.94
2023-04-27T03:33:02.341Z,5.99
2023-04-27T03:35:29.254Z,6.01
2023-04-27T03:37:56.121Z,5.94
2023-04-27T03:40:23.124Z,5.93
2023-04-27T03:42:50.027Z,5.84
2023-04-27T03:45:22.416Z,5.94
2023-04-27T03:47:51.443Z,5.98
2023-04-27T03:50:18.396Z,5.99
2023-04-27T03:52:45.426Z,5.99
2023-04-27T03:55:12.548Z,5.96
2023-04-27T03:57:39.519Z,5.78
2023-04-27T04:00:14.672Z,5.78
2023-04-27T04:02:44.009Z,5.77
2023-04-27T04:05:12.464Z,5.53
2023-04-27T04:07:41.945Z,5.59
2023-04-27T04:10:09.710Z,5.58
2023-04-27T04:12:39.404Z,5.41
2023-04-27T04:15:09.459Z,5.57
2023-04-27T04:17:40.988Z,5.55
2023-04-27T04:20:11.520Z,5.59
2023-04-27T04:22:39.435Z,5.50
2023-04-27T04:25:07.001Z,5.53
2023-04-27T04:27:33.914Z,5.23
2023-04-27T04:30:01.111Z,5.18
2023-04-27T04:32:33.696Z,5.22
2023-04-27T04:35:05.054Z,5.31
2023-04-27T04:37:41.114Z,5.20
2023-04-27T04:40:09.051Z,5.22
2023-04-27T04:42:37.598Z,5.31
2023-04-27T04:45:05.568Z,5.51
2023-04-27T04:47:32.496Z,5.55
2023-04-27T04:49:59.876Z,5.56
2023-04-27T04:52:27.007Z,5.74
2023-04-27T04:54:54.272Z,5.81
2023-04-27T04:57:21.356Z,5.92
2023-04-27T04:59:48.537Z,5.86
2023-04-27T05:02:15.765Z,5.47
2023-04-27T05:04:42.911Z,5.61
2023-04-27T05:07:14.058Z,5.70
2023-04-27T05:09:44.239Z,6.11
2023-04-27T05:12:11.288Z,6.19
2023-04-27T05:14:38.207Z,6.25
2023-04-27T05:17:07.981Z,6.36
2023-04-27T05:19:35.119Z,6.43
2023-04-27T05:22:04.697Z,6.76
2023-04-27T05:24:31.636Z,6.97
2023-04-27T05:27:03.630Z,7.09
2023-04-27T05:29:30.625Z,7.33
2023-04-27T05:32:00.113Z,7.53
2023-04-27T05:34:27.329Z,7.36
2023-04-27T05:36:54.232Z,7.48
2023-04-27T05:39:21.291Z,7.79
2023-04-27T05:41:48.207Z,7.93
2023-04-27T05:44:15.162Z,7.95
2023-04-27T05:46:45.105Z,8.10
2023-04-27T05:49:12.180Z,7.96
2023-04-27T05:51:39.164Z,8.15
2023-04-27T05:54:06.348Z,8.25
2023-04-27T05:56:35.552Z,8.18
2023-04-27T05:59:10.774Z,8.07
2023-04-27T06:01:40.337Z,8.11
2023-04-27T06:04:07.555Z,8.31
2023-04-27T06:06:35.409Z,8.45
2023-04-27T06:09:05.171Z,8.51
2023-04-27T06:11:32.102Z,8.27
2023-04-27T06:13:58.957Z,8.65
2023-04-27T06:16:26.042Z,9.06
2023-04-27T06:18:53.078Z,9.34
2023-04-27T06:21:20.169Z,9.49
2023-04-27T06:23:50.157Z,9.24
2023-04-27T06:26:19.680Z,9.39
2023-04-27T06:28:46.852Z,9.58
2023-04-27T06:31:16.405Z,9.76
2023-04-27T06:33:43.514Z,9.64
2023-04-27T06:36:10.782Z,9.69
2023-04-27T06:38:42.617Z,9.92
2023-04-27T06:41:09.722Z,9.99
2023-04-27T06:43:38.899Z,10.27
2023-04-27T06:46:06.131Z,10.34
2023-04-27T06:48:37.547Z,10.27
2023-04-27T06:51:04.910Z,10.46
2023-04-27T06:53:32.026Z,10.66
2023-04-27T06:55:59.173Z,10.88
2023-04-27T06:58:27.153Z,10.48
2023-04-27T07:00:54.348Z,10.50
2023-04-27T07:03:22.345Z,10.50
2023-04-27T07:05:51.537Z,10.67
2023-04-27T07:08:18.411Z,10.92
2023-04-27T07:10:48.276Z,10.54
2023-04-27T07:13:15.327Z,10.47
2023-04-27T07:15:42.282Z,10.94
2023-04-27T07:18:12.244Z,11.20
2023-04-27T07:20:39.123Z,11.70
2023-04-27T07:23:06.256Z,11.98
2023-04-27T07:25:33.388Z,12.16
2023-04-27T07:28:02.462Z,12.51
2023-04-27T07:30:31.145Z,12.80
2023-04-27T07:32:58.355Z,13.34
2023-04-27T07:35:25.586Z,13.82
2023-04-27T07:37:56.603Z,14.24
2023-04-27T07:40:24.159Z,14.27
2023-04-27T07:42:51.222Z,13.91
2023-04-27T07:45:18.197Z,13.30
2023-04-27T07:47:45.273Z,12.72
2023-04-27T07:50:14.241Z,12.50
2023-04-27T07:52:41.250Z,12.80
2023-04-27T07:55:11.012Z,12.31
2023-04-27T07:57:37.870Z,11.86
2023-04-27T08:00:09.866Z,12.70
2023-04-27T08:02:37.093Z,13.09
2023-04-27T08:05:06.714Z,12.59
2023-04-27T08:07:38.360Z,13.11
2023-04-27T08:10:12.187Z,13.09
2023-04-27T08:12:41.619Z,13.55
2023-04-27T08:15:09.456Z,13.79
2023-04-27T08:17:41.144Z,14.03
2023-04-27T08:20:12.049Z,14.16
2023-04-27T08:22:44.714Z,14.04
2023-04-27T08:25:11.749Z,13.95
2023-04-27T08:27:41.858Z,13.68
2023-04-27T08:30:09.582Z,13.76
2023-04-27T08:32:38.909Z,13.93
2023-04-27T08:35:07.102Z,13.76
2023-04-27T08:37:33.964Z,14.01
2023-04-27T08:40:03.129Z,14.51
2023-04-27T08:42:32.586Z,14.70
2023-04-27T08:45:04.590Z,15.02
2023-04-27T08:47:41.620Z,15.37
2023-04-27T08:50:14.125Z,15.56
2023-04-27T08:52:44.714Z,15.44
2023-04-27T08:55:17.047Z,15.85
2023-04-27T08:57:58.480Z,15.75
2023-04-27T09:00:31.264Z,15.33
2023-04-27T09:02:58.265Z,14.83
2023-04-27T09:05:25.270Z,14.94
2023-04-27T09:08:08.253Z,14.65
2023-04-27T09:10:55.257Z,14.52
2023-04-27T09:13:22.302Z,14.80
2023-04-27T09:15:52.309Z,14.69
2023-04-27T09:18:23.843Z,15.10
2023-04-27T09:20:58.758Z,14.90
2023-04-27T09:23:39.078Z,14.96
2023-04-27T09:26:10.886Z,15.27
2023-04-27T09:28:48.495Z,15.78
2023-04-27T09:31:15.595Z,16.28
2023-04-27T09:33:45.783Z,16.64
2023-04-27T09:36:12.729Z,16.81
2023-04-27T09:38:40.174Z,17.26
2023-04-27T09:41:08.990Z,17.56
2023-04-27T09:43:36.804Z,17.47
2023-04-27T09:46:04.946Z,17.64
2023-04-27T09:48:32.001Z,17.62
2023-04-27T09:50:58.922Z,17.36
2023-04-27T09:53:48.706Z,17.41
2023-04-27T09:56:52.518Z,17.32
2023-04-27T10:00:12.685Z,17.29
2023-04-27T10:03:25.204Z,17.55
2023-04-27T10:06:22.438Z,17.59
2023-04-27T10:08:51.604Z,17.55
2023-04-27T10:11:19.414Z,17.44
2023-04-27T10:13:55.840Z,17.58
2023-04-27T10:16:23.054Z,17.96
2023-04-27T10:18:55.823Z,18.04
2023-04-27T10:21:23.811Z,18.23
2023-04-27T10:23:52.363Z,18.56
2023-04-27T10:26:27.701Z,18.63
2023-04-27T10:29:08.874Z,18.38
2023-04-27T10:31:36.303Z,18.81
2023-04-27T10:34:12.122Z,18.90
2023-04-27T10:36:40.978Z,19.40
2023-04-27T10:39:39.726Z,18.72
2023-04-27T10:42:13.194Z,18.68
2023-04-27T10:44:42.554Z,18.64
2023-04-27T10:47:19.900Z,18.77
2023-04-27T10:49:55.896Z,19.11
2023-04-27T10:52:22.748Z,19.49
2023-04-27T10:54:51.783Z,19.84
2023-04-27T10:57:18.723Z,20.08
2023-04-27T11:00:05.312Z,20.21
2023-04-27T11:02:32.250Z,19.46
2023-04-27T11:05:05.751Z,18.16
2023-04-27T11:07:34.020Z,18.71
2023-04-27T11:10:01.251Z,18.94
2023-04-27T11:12:36.964Z,18.74
2023-04-27T11:15:07.244Z,17.44
2023-04-27T11:17:34.235Z,16.83
2023-04-27T11:20:01.240Z,17.95
2023-04-27T11:22:30.690Z,18.82
2023-04-27T11:24:57.661Z,18.93
2023-04-27T11:27:25.354Z,18.87
2023-04-27T11:29:57.803Z,18.72
2023-04-27T11:32:26.041Z,19.28
2023-04-27T11:34:57.801Z,19.57
2023-04-27T11:37:27.817Z,19.43
2023-04-27T11:39:57.369Z,19.72
2023-04-27T11:42:31.523Z,19.79
2023-04-27T11:45:10.244Z,19.66
2023-04-27T11:47:46.636Z,20.01
2023-04-27T11:50:13.654Z,20.63
2023-04-27T11:52:41.198Z,20.48
2023-04-27T11:55:16.155Z,20.04
2023-04-27T11:57:43.356Z,19.81
2023-04-27T12:00:14.677Z,19.77
2023-04-27T12:02:43.687Z,20.07
2023-04-27T12:05:14.108Z,20.02
2023-04-27T12:07:43.207Z,19.92
2023-04-27T12:10:13.497Z,19.10
2023-04-27T12:12:40.981Z,18.84
2023-04-27T12:15:11.061Z,18.38
2023-04-27T12:17:39.840Z,17.97
2023-04-27T12:20:10.032Z,17.98
2023-04-27T12:22:37.257Z,18.14
2023-04-27T12:25:05.280Z,18.15
2023-04-27T12:27:32.259Z,18.19
2023-04-27T12:29:59.641Z,18.85
2023-04-27T12:32:31.877Z,19.80
2023-04-27T12:35:01.593Z,20.18
2023-04-27T12:37:28.522Z,20.33
2023-04-27T12:39:58.464Z,19.81
2023-04-27T12:42:25.431Z,19.41
2023-04-27T12:44:52.709Z,19.08
2023-04-27T12:47:43.102Z,18.93
2023-04-27T12:50:09.982Z,18.61
2023-04-27T12:52:37.045Z,18.85
2023-04-27T12:55:05.906Z,19.08
2023-04-27T12:57:32.928Z,19.10
2023-04-27T13:00:06.636Z,19.00
2023-04-27T13:02:35.286Z,18.36
2023-04-27T13:05:04.417Z,17.96
2023-04-27T13:07:34.344Z,17.53
2023-04-27T13:10:06.616Z,17.34
2023-04-27T13:12:36.541Z,17.37
2023-04-27T13:15:03.908Z,17.40
2023-04-27T13:17:30.909Z,17.50
2023-04-27T13:20:00.156Z,17.48
2023-04-27T13:22:28.021Z,17.58
2023-04-27T13:24:57.971Z,17.97
2023-04-27T13:27:28.305Z,18.43
2023-04-27T13:29:56.074Z,18.87
2023-04-27T13:32:23.249Z,19.09
2023-04-27T13:34:50.351Z,19.19
2023-04-27T13:37:18.413Z,18.60
2023-04-27T13:39:45.710Z,17.78
2023-04-27T13:42:12.683Z,17.28
2023-04-27T13:44:39.587Z,16.78
2023-04-27T13:47:06.915Z,16.73
2023-04-27T13:49:36.380Z,17.06
2023-04-27T13:52:05.490Z,17.17
2023-04-27T13:54:37.206Z,16.80
2023-04-27T13:57:06.564Z,16.71
2023-04-27T13:59:33.449Z,17.02
2023-04-27T14:02:00.303Z,16.87
2023-04-27T14:04:29.972Z,16.84
2023-04-27T14:06:56.942Z,16.86
2023-04-27T14:09:26.166Z,16.82
2023-04-27T14:11:57.096Z,16.84
2023-04-27T14:14:24.537Z,16.89
2023-04-27T14:16:52.831Z,16.84
2023-04-27T14:19:20.709Z,17.03
2023-04-27T14:21:51.879Z,17.47
2023-04-27T14:24:21.360Z,17.49
2023-04-27T14:26:51.136Z,17.57
2023-04-27T14:29:21.317Z,17.87
2023-04-27T14:31:49.104Z,17.68
2023-04-27T14:34:20.941Z,17.78
2023-04-27T14:36:51.635Z,17.99
2023-04-27T14:39:21.945Z,18.33
2023-04-27T14:41:48.891Z,18.53
2023-04-27T14:44:15.911Z,18.72
2023-04-27T14:46:42.838Z,18.50
2023-04-27T14:49:09.866Z,18.22
2023-04-27T14:51:36.756Z,18.16
2023-04-27T14:54:09.200Z,17.77
2023-04-27T14:56:36.677Z,17.35
2023-04-27T14:59:03.554Z,17.53
2023-04-27T15:01:30.589Z,17.58
2023-04-27T15:03:58.199Z,17.43
2023-04-27T15:06:30.424Z,17.56
2023-04-27T15:08:57.682Z,17.53
2023-04-27T15:11:26.882Z,17.59
2023-04-27T15:13:53.752Z,17.55
2023-04-27T15:16:22.906Z,17.81
2023-04-27T15:18:49.796Z,17.58
2023-04-27T15:21:16.692Z,17.66
2023-04-27T15:23:43.575Z,17.74
2023-04-27T15:26:12.906Z,17.67
2023-04-27T15:28:48.551Z,17.53
2023-04-27T15:31:18.729Z,17.69
2023-04-27T15:33:45.697Z,17.72
2023-04-27T15:36:12.761Z,17.50
2023-04-27T15:38:39.675Z,17.68
2023-04-27T15:41:06.573Z,17.65
2023-04-27T15:43:35.516Z,17.68
2023-04-27T15:46:06.339Z,17.76
2023-04-27T15:48:33.434Z,17.79
2023-04-27T15:51:03.843Z,17.99
2023-04-27T15:53:31.899Z,18.05
2023-04-27T15:56:03.423Z,17.98
2023-04-27T15:58:30.556Z,17.82
2023-04-27T16:00:59.914Z,17.88
2023-04-27T16:03:27.000Z,17.70
2023-04-27T16:05:57.469Z,17.49
2023-04-27T16:08:26.762Z,17.51
2023-04-27T16:10:53.659Z,17.53
2023-04-27T16:13:23.847Z,17.40
2023-04-27T16:15:52.949Z,17.27
2023-04-27T16:18:22.023Z,17.33
2023-04-27T16:20:51.324Z,17.27
2023-04-27T16:23:18.252Z,17.46
2023-04-27T16:25:45.192Z,17.44
2023-04-27T16:28:12.173Z,17.37
2023-04-27T16:30:39.075Z,17.43
2023-04-27T16:33:06.051Z,17.14
2023-04-27T16:35:33.948Z,17.00
2023-04-27T16:38:05.821Z,17.13
2023-04-27T16:40:34.124Z,16.99
2023-04-27T16:43:01.248Z,16.94
2023-04-27T16:45:28.632Z,16.84
2023-04-27T16:47:59.891Z,16.56
2023-04-27T16:50:31.558Z,16.90
2023-04-27T16:53:09.994Z,16.78
2023-04-27T16:55:41.831Z,16.66
2023-04-27T16:58:08.780Z,16.83
2023-04-27T17:00:35.973Z,17.02
2023-04-27T17:03:03.411Z,17.07
2023-04-27T17:05:30.676Z,16.99
2023-04-27T17:07:59.715Z,16.93
2023-04-27T17:10:28.179Z,16.76
2023-04-27T17:12:55.229Z,16.83
2023-04-27T17:15:22.207Z,16.71
2023-04-27T17:17:49.261Z,16.68
2023-04-27T17:20:16.861Z,16.34
2023-04-27T17:22:43.893Z,16.13
2023-04-27T17:25:13.762Z,15.63
2023-04-27T17:27:41.103Z,15.86
2023-04-27T17:30:09.547Z,15.92
2023-04-27T17:32:37.396Z,15.85
2023-04-27T17:35:04.943Z,15.69
2023-04-27T17:37:32.116Z,15.73
2023-04-27T17:40:01.753Z,15.60
2023-04-27T17:42:29.193Z,15.62
2023-04-27T17:44:58.864Z,15.52
2023-04-27T17:47:33.363Z,15.59
2023-04-27T17:50:01.435Z,15.51
2023-04-27T17:52:31.341Z,15.52
2023-04-27T17:54:58.503Z,15.49
2023-04-27T17:57:25.432Z,15.37
2023-04-27T17:59:52.600Z,15.14
2023-04-27T18:02:19.721Z,15.01
2023-04-27T18:04:49.738Z,14.99
2023-04-27T18:07:19.872Z,14.91
2023-04-27T18:09:47.028Z,14.73
2023-04-27T18:12:16.086Z,14.69
2023-04-27T18:14:42.961Z,14.58
2023-04-27T18:17:12.172Z,14.26
2023-04-27T18:19:41.651Z,14.14
2023-04-27T18:22:10.032Z,14.17
2023-04-27T18:24:37.145Z,14.28
2023-04-27T18:27:06.301Z,14.30
2023-04-27T18:29:33.223Z,14.23
2023-04-27T18:32:05.420Z,14.31
2023-04-27T18:34:33.321Z,14.24
2023-04-27T18:37:03.179Z,14.26
2023-04-27T18:39:30.445Z,14.23
2023-04-27T18:41:59.621Z,14.19
2023-04-27T18:44:31.497Z,14.12
2023-04-27T18:47:03.436Z,14.07
2023-04-27T18:49:32.729Z,14.09
2023-04-27T18:51:59.673Z,13.98
2023-04-27T18:54:29.593Z,13.96
2023-04-27T18:56:59.093Z,13.80
2023-04-27T18:59:25.966Z,13.79
2023-04-27T19:01:55.116Z,13.76
2023-04-27T19:04:22.191Z,13.68
2023-04-27T19:06:50.064Z,13.75
2023-04-27T19:09:19.234Z,13.72
2023-04-27T19:11:49.443Z,13.63
2023-04-27T19:14:24.313Z,13.54
2023-04-27T19:16:53.873Z,13.59
2023-04-27T19:19:24.777Z,13.62
2023-04-27T19:21:54.350Z,13.49
2023-04-27T19:24:21.250Z,13.46
2023-04-27T19:26:48.433Z,13.40
2023-04-27T19:29:15.952Z,13.25
2023-04-27T19:31:43.489Z,13.33
2023-04-27T19:34:12.685Z,13.37
2023-04-27T19:36:42.548Z,13.38
2023-04-27T19:39:09.670Z,13.34
2023-04-27T19:41:39.662Z,13.21
2023-04-27T19:44:06.502Z,13.27
2023-04-27T19:46:36.429Z,13.13
2023-04-27T19:49:03.384Z,13.15
2023-04-27T19:51:31.655Z,13.02
2023-04-27T19:53:58.604Z,13.06
2023-04-27T19:56:25.475Z,12.75
2023-04-27T19:58:52.475Z,12.85
2023-04-27T20:01:20.868Z,12.89
2023-04-27T20:03:47.990Z,12.78
2023-04-27T20:06:15.085Z,12.69
2023-04-27T20:08:42.119Z,12.68
2023-04-27T20:11:09.078Z,12.73
2023-04-27T20:13:40.940Z,12.67
2023-04-27T20:16:09.717Z,12.52
2023-04-27T20:18:37.984Z,12.57
2023-04-27T20:21:07.492Z,12.59
2023-04-27T20:23:37.178Z,12.67
2023-04-27T20:26:04.412Z,12.74
2023-04-27T20:28:31.358Z,12.52
2023-04-27T20:30:58.230Z,12.54
2023-04-27T20:33:27.328Z,12.42
2023-04-27T20:36:14.142Z,12.31
2023-04-27T20:38:46.808Z,12.42
2023-04-27T20:41:16.012Z,12.20
2023-04-27T20:43:45.466Z,12.15
2023-04-27T20:46:15.092Z,12.20
2023-04-27T20:48:42.048Z,12.27
2023-04-27T20:51:09.295Z,12.31
2023-04-27T20:53:36.214Z,12.24
2023-04-27T20:56:03.754Z,12.23
2023-04-27T20:58:30.801Z,12.23
2023-04-27T21:00:58.233Z,12.03
2023-04-27T21:03:25.289Z,12.11
2023-04-27T21:05:54.863Z,11.96
2023-04-27T21:08:24.370Z,12.04
2023-04-27T21:10:59.349Z,12.04
2023-04-27T21:13:26.523Z,12.11
2023-04-27T21:15:58.348Z,11.98
2023-04-27T21:18:30.125Z,11.89
2023-04-27T21:21:00.758Z,11.79
2023-04-27T21:23:30.002Z,11.71
2023-04-27T21:25:56.973Z,11.86
2023-04-27T21:28:24.292Z,11.73
2023-04-27T21:30:51.783Z,11.69
2023-04-27T21:33:21.334Z,11.78
2023-04-27T21:35:48.471Z,11.56
2023-04-27T21:38:20.796Z,11.53
2023-04-27T21:40:48.151Z,11.63
2023-04-27T21:43:15.192Z,11.63
2023-04-27T21:45:42.173Z,11.71
2023-04-27T21:48:09.314Z,11.73
2023-04-27T21:50:36.718Z,11.67
2023-04-27T21:53:04.348Z,11.54
2023-04-27T21:55:31.471Z,11.61
2023-04-27T21:57:58.763Z,11.70
2023-04-27T22:00:25.912Z,11.70
2023-04-27T22:02:53.101Z,11.67
2023-04-27T22:05:22.721Z,11.60
2023-04-27T22:07:50.093Z,11.43
2023-04-27T22:10:17.580Z,11.57
2023-04-27T22:12:44.519Z,11.56
2023-04-27T22:15:12.150Z,11.47
2023-04-27T22:17:41.672Z,11.53
2023-04-27T22:20:14.181Z,11.62
2023-04-27T22:22:44.220Z,11.32
2023-04-27T22:25:12.069Z,11.35
2023-04-27T22:27:45.092Z,11.49
2023-04-27T22:30:13.721Z,11.64
2023-04-27T22:32:43.486Z,11.49
2023-04-27T22:35:24.823Z,11.47
2023-04-27T22:37:56.923Z,11.45
2023-04-27T22:40:26.911Z,11.57
2023-04-27T22:42:56.583Z,11.47
2023-04-27T22:45:23.644Z,11.30
2023-04-27T22:47:50.891Z,11.37
2023-04-27T22:50:20.228Z,11.18
2023-04-27T22:52:48.302Z,11.18
2023-04-27T22:55:15.272Z,11.28
2023-04-27T22:57:42.395Z,11.32
2023-04-27T23:00:12.528Z,11.35
2023-04-27T23:02:40.798Z,11.36
2023-04-27T23:05:12.410Z,11.26
2023-04-27T23:07:41.485Z,11.24
2023-04-27T23:10:11.265Z,11.12
2023-04-27T23:12:38.664Z,11.16
2023-04-27T23:15:06.196Z,11.10
2023-04-27T23:17:33.504Z,11.12
2023-04-27T23:20:24.033Z,11.00
2023-04-27T23:22:59.391Z,11.15
2023-04-27T23:25:26.662Z,11.09
2023-04-27T23:27:53.666Z,11.04
2023-04-27T23:30:22.132Z,10.83
2023-04-27T23:32:49.130Z,10.90
2023-04-27T23:35:16.257Z,10.83
2023-04-27T23:37:43.580Z,10.80
2023-04-27T23:40:14.932Z,10.76
2023-04-27T23:42:41.956Z,10.73
2023-04-27T23:45:09.235Z,10.70
2023-04-27T23:47:38.542Z,10.57
2023-04-27T23:50:06.443Z,10.73
2023-04-27T23:52:35.640Z,10.71
2023-04-27T23:55:05.029Z,10.56
2023-04-27T23:57:34.037Z,10.66
